Portada
METAR-TAF:

METAR-TAF

Aeroports :

Malé, Maldives

latitud: 04-12N, longitud: 073-32E, altitud: 2 m

Observació

L'informe es va fer fa 1 hora i 7 minuts, a les 12:00 UTC
Vent 14 kt del Oest
Temperatura 30°C
Humitat 79%
Pressió 1006 hPa
Visibilitat 10 km o més
Núvols disperses a una alçada de 1800 ft
Cel ennuvolat a una alçada de 13000 ft

METAR: VRMM 211200Z 27014KT 9999 SCT018 BKN130 30/26 Q1006 NOSIG

Hora: 18:07 (13:07 UTC)

Pronòstic

L'informe es va fer fa 2 hores i 7 minuts, a les 11:00 UTC
Pronòstic vàlid del 21 a les 12 UTC al 22 a les 18 UTC
Vent 16 kt del Oest/Sud-Oest
Visibilitat 10 km o més
Escasses núvols a una alçada de 1800 ft
Temporalment
l' 21 a les 13 UTC al 21 a les 19 UTC
Escasses núvols a una alçada de 1800 ft, Cumulonimbus.

TAF: VRMM 211100Z 2112/2218 25016KT 9999 FEW018 TEMPO 2113/2119 FEW018CB

Observacions i pronòstics meteorològics de més de 4000 aeroports (METAR i TAF).

Les estacions disponibles són els punts grocs i vermells al mapa.

Posi el ratolí al punt desitjat per veure el nom de l'estació.

Feu clic per veure les observacions i els pronòstics meteorològics.

Per canviar el mapa: feu clic els botons verds amb una creu de color negre per apropar; al botó verd amb un guió per allunyar la imatge; o en les fletxes verdes per a mapes adjacents.


METAR-TAF: